sensor_id;sensor_type;location;lat;lon;timestamp;P1;durP1;ratioP1;P2;durP2;ratioP2
70071;SDS011;57434;42.794;23.302;2022-11-21T00:01:20;11.95;;;4.72;;
70071;SDS011;57434;42.794;23.302;2022-11-21T00:03:48;9.35;;;3.55;;
70071;SDS011;57434;42.794;23.302;2022-11-21T00:06:16;6.57;;;3.15;;
70071;SDS011;57434;42.794;23.302;2022-11-21T00:08:44;9.50;;;3.65;;
70071;SDS011;57434;42.794;23.302;2022-11-21T00:11:11;10.23;;;4.00;;
70071;SDS011;57434;42.794;23.302;2022-11-21T00:13:38;7.13;;;3.20;;
70071;SDS011;57434;42.794;23.302;2022-11-21T00:16:07;7.68;;;3.35;;
70071;SDS011;57434;42.794;23.302;2022-11-21T00:18:36;9.13;;;3.58;;
70071;SDS011;57434;42.794;23.302;2022-11-21T00:21:05;9.32;;;4.20;;
70071;SDS011;57434;42.794;23.302;2022-11-21T00:23:33;14.87;;;5.20;;
70071;SDS011;57434;42.794;23.302;2022-11-21T00:26:02;12.10;;;5.00;;
70071;SDS011;57434;42.794;23.302;2022-11-21T00:28:30;18.27;;;9.57;;
70071;SDS011;57434;42.794;23.302;2022-11-21T00:30:58;14.73;;;7.65;;
70071;SDS011;57434;42.794;23.302;2022-11-21T00:33:25;9.18;;;3.95;;
70071;SDS011;57434;42.794;23.302;2022-11-21T00:35:52;10.00;;;3.93;;
70071;SDS011;57434;42.794;23.302;2022-11-21T00:38:19;12.68;;;5.13;;
70071;SDS011;57434;42.794;23.302;2022-11-21T00:40:46;9.52;;;4.03;;
70071;SDS011;57434;42.794;23.302;2022-11-21T00:43:13;13.18;;;5.35;;
70071;SDS011;57434;42.794;23.302;2022-11-21T00:45:43;10.95;;;4.78;;
70071;SDS011;57434;42.794;23.302;2022-11-21T00:48:10;11.07;;;4.97;;
70071;SDS011;57434;42.794;23.302;2022-11-21T00:50:37;11.98;;;5.60;;
70071;SDS011;57434;42.794;23.302;2022-11-21T00:53:04;11.32;;;5.30;;
70071;SDS011;57434;42.794;23.302;2022-11-21T00:55:31;11.15;;;5.32;;
70071;SDS011;57434;42.794;23.302;2022-11-21T00:57:58;10.85;;;5.28;;
70071;SDS011;57434;42.794;23.302;2022-11-21T01:00:25;13.80;;;5.87;;
70071;SDS011;57434;42.794;23.302;2022-11-21T01:02:52;15.15;;;6.75;;
70071;SDS011;57434;42.794;23.302;2022-11-21T01:05:19;14.57;;;7.38;;
70071;SDS011;57434;42.794;23.302;2022-11-21T01:07:49;14.27;;;7.32;;
70071;SDS011;57434;42.794;23.302;2022-11-21T01:10:16;14.50;;;6.50;;
70071;SDS011;57434;42.794;23.302;2022-11-21T01:12:43;13.20;;;6.20;;
70071;SDS011;57434;42.794;23.302;2022-11-21T01:15:10;12.77;;;5.80;;
70071;SDS011;57434;42.794;23.302;2022-11-21T01:17:37;12.10;;;5.88;;
70071;SDS011;57434;42.794;23.302;2022-11-21T01:20:04;11.40;;;6.20;;
70071;SDS011;57434;42.794;23.302;2022-11-21T01:22:31;12.57;;;5.53;;
70071;SDS011;57434;42.794;23.302;2022-11-21T01:24:58;11.53;;;5.80;;
70071;SDS011;57434;42.794;23.302;2022-11-21T01:27:26;8.77;;;4.38;;
70071;SDS011;57434;42.794;23.302;2022-11-21T01:29:53;10.73;;;4.80;;
70071;SDS011;57434;42.794;23.302;2022-11-21T01:32:19;12.80;;;5.53;;
70071;SDS011;57434;42.794;23.302;2022-11-21T01:34:47;11.27;;;5.15;;
70071;SDS011;57434;42.794;23.302;2022-11-21T01:37:13;8.87;;;4.80;;
70071;SDS011;57434;42.794;23.302;2022-11-21T01:39:41;10.98;;;5.63;;
70071;SDS011;57434;42.794;23.302;2022-11-21T01:42:08;6.85;;;2.97;;
70071;SDS011;57434;42.794;23.302;2022-11-21T01:44:45;6.10;;;2.15;;
70071;SDS011;57434;42.794;23.302;2022-11-21T01:47:17;5.20;;;1.95;;
70071;SDS011;57434;42.794;23.302;2022-11-21T01:49:45;6.50;;;2.60;;
70071;SDS011;57434;42.794;23.302;2022-11-21T01:57:23;5.10;;;1.80;;
70071;SDS011;57434;42.794;23.302;2022-11-21T02:00:04;6.88;;;2.03;;
70071;SDS011;57434;42.794;23.302;2022-11-21T02:02:48;32.07;;;10.77;;
70071;SDS011;57434;42.794;23.302;2022-11-21T02:05:23;6.30;;;1.92;;
70071;SDS011;57434;42.794;23.302;2022-11-21T02:07:57;3.42;;;1.25;;
70071;SDS011;57434;42.794;23.302;2022-11-21T02:10:31;6.45;;;1.60;;
70071;SDS011;57434;42.794;23.302;2022-11-21T02:13:00;8.23;;;2.63;;
70071;SDS011;57434;42.794;23.302;2022-11-21T02:15:28;11.20;;;3.00;;
70071;SDS011;57434;42.794;23.302;2022-11-21T02:17:56;9.43;;;2.75;;
70071;SDS011;57434;42.794;23.302;2022-11-21T02:23:20;23.80;;;10.70;;
70071;SDS011;57434;42.794;23.302;2022-11-21T02:26:03;27.83;;;5.38;;
70071;SDS011;57434;42.794;23.302;2022-11-21T02:28:31;19.50;;;6.37;;
70071;SDS011;57434;42.794;23.302;2022-11-21T02:30:58;10.85;;;2.42;;
70071;SDS011;57434;42.794;23.302;2022-11-21T02:33:25;23.55;;;6.95;;
70071;SDS011;57434;42.794;23.302;2022-11-21T02:35:58;14.60;;;4.57;;
70071;SDS011;57434;42.794;23.302;2022-11-21T02:38:34;11.27;;;2.72;;
70071;SDS011;57434;42.794;23.302;2022-11-21T02:41:06;34.57;;;9.37;;
70071;SDS011;57434;42.794;23.302;2022-11-21T02:43:56;16.75;;;4.05;;
70071;SDS011;57434;42.794;23.302;2022-11-21T02:46:28;20.52;;;5.47;;
70071;SDS011;57434;42.794;23.302;2022-11-21T02:48:55;10.82;;;3.25;;
70071;SDS011;57434;42.794;23.302;2022-11-21T02:51:24;5.75;;;1.70;;
70071;SDS011;57434;42.794;23.302;2022-11-21T02:53:51;12.00;;;2.63;;
70071;SDS011;57434;42.794;23.302;2022-11-21T02:56:18;26.00;;;5.57;;
70071;SDS011;57434;42.794;23.302;2022-11-21T02:58:46;8.65;;;2.55;;
70071;SDS011;57434;42.794;23.302;2022-11-21T03:01:13;26.90;;;8.27;;
70071;SDS011;57434;42.794;23.302;2022-11-21T03:03:40;8.27;;;1.77;;
70071;SDS011;57434;42.794;23.302;2022-11-21T03:06:07;12.67;;;2.90;;
70071;SDS011;57434;42.794;23.302;2022-11-21T03:08:34;15.00;;;3.25;;
70071;SDS011;57434;42.794;23.302;2022-11-21T03:11:01;13.82;;;4.70;;
70071;SDS011;57434;42.794;23.302;2022-11-21T03:13:30;13.90;;;3.63;;
70071;SDS011;57434;42.794;23.302;2022-11-21T03:15:58;11.50;;;3.60;;
70071;SDS011;57434;42.794;23.302;2022-11-21T03:18:25;4.93;;;1.00;;
70071;SDS011;57434;42.794;23.302;2022-11-21T03:20:52;1.95;;;0.40;;
70071;SDS011;57434;42.794;23.302;2022-11-21T03:23:19;7.93;;;0.63;;
70071;SDS011;57434;42.794;23.302;2022-11-21T03:25:46;2.15;;;0.60;;
70071;SDS011;57434;42.794;23.302;2022-11-21T03:28:13;4.75;;;1.33;;
70071;SDS011;57434;42.794;23.302;2022-11-21T03:30:41;9.47;;;4.00;;
70071;SDS011;57434;42.794;23.302;2022-11-21T03:33:07;13.05;;;4.80;;
70071;SDS011;57434;42.794;23.302;2022-11-21T03:35:34;23.00;;;7.75;;
70071;SDS011;57434;42.794;23.302;2022-11-21T03:38:02;20.90;;;7.88;;
70071;SDS011;57434;42.794;23.302;2022-11-21T03:40:29;33.15;;;11.55;;
70071;SDS011;57434;42.794;23.302;2022-11-21T03:42:56;23.60;;;9.13;;
70071;SDS011;57434;42.794;23.302;2022-11-21T03:45:23;11.45;;;4.10;;
70071;SDS011;57434;42.794;23.302;2022-11-21T03:47:50;7.93;;;2.72;;
70071;SDS011;57434;42.794;23.302;2022-11-21T03:50:16;8.43;;;2.30;;
70071;SDS011;57434;42.794;23.302;2022-11-21T03:52:43;8.48;;;2.75;;
70071;SDS011;57434;42.794;23.302;2022-11-21T03:55:10;8.83;;;2.73;;
70071;SDS011;57434;42.794;23.302;2022-11-21T03:57:38;10.32;;;3.00;;
70071;SDS011;57434;42.794;23.302;2022-11-21T04:00:05;20.95;;;7.43;;
70071;SDS011;57434;42.794;23.302;2022-11-21T04:02:33;29.73;;;10.30;;
70071;SDS011;57434;42.794;23.302;2022-11-21T04:05:00;16.00;;;6.38;;
70071;SDS011;57434;42.794;23.302;2022-11-21T04:07:27;13.30;;;5.60;;
70071;SDS011;57434;42.794;23.302;2022-11-21T04:09:54;7.40;;;3.60;;
70071;SDS011;57434;42.794;23.302;2022-11-21T04:12:21;6.75;;;2.83;;
70071;SDS011;57434;42.794;23.302;2022-11-21T04:14:48;8.60;;;3.33;;
70071;SDS011;57434;42.794;23.302;2022-11-21T04:17:15;7.43;;;3.00;;
70071;SDS011;57434;42.794;23.302;2022-11-21T04:19:42;7.00;;;2.00;;
70071;SDS011;57434;42.794;23.302;2022-11-21T04:22:09;3.30;;;0.80;;
70071;SDS011;57434;42.794;23.302;2022-11-21T04:24:36;4.30;;;1.40;;
70071;SDS011;57434;42.794;23.302;2022-11-21T04:27:03;4.72;;;1.25;;
70071;SDS011;57434;42.794;23.302;2022-11-21T04:29:31;3.05;;;0.70;;
70071;SDS011;57434;42.794;23.302;2022-11-21T04:31:57;2.13;;;0.50;;
70071;SDS011;57434;42.794;23.302;2022-11-21T04:34:25;4.40;;;0.52;;
70071;SDS011;57434;42.794;23.302;2022-11-21T04:36:52;3.33;;;0.50;;
70071;SDS011;57434;42.794;23.302;2022-11-21T04:39:20;2.25;;;0.40;;
70071;SDS011;57434;42.794;23.302;2022-11-21T04:41:47;1.35;;;0.50;;
70071;SDS011;57434;42.794;23.302;2022-11-21T04:44:14;1.67;;;0.40;;
70071;SDS011;57434;42.794;23.302;2022-11-21T04:46:41;6.85;;;3.53;;
70071;SDS011;57434;42.794;23.302;2022-11-21T04:49:08;2.97;;;0.88;;
70071;SDS011;57434;42.794;23.302;2022-11-21T04:51:35;1.85;;;0.45;;
70071;SDS011;57434;42.794;23.302;2022-11-21T04:54:02;4.63;;;1.55;;
70071;SDS011;57434;42.794;23.302;2022-11-21T04:56:29;10.97;;;4.77;;
70071;SDS011;57434;42.794;23.302;2022-11-21T04:58:56;6.75;;;2.78;;
70071;SDS011;57434;42.794;23.302;2022-11-21T05:01:22;2.67;;;0.70;;
70071;SDS011;57434;42.794;23.302;2022-11-21T05:03:51;2.10;;;0.50;;
70071;SDS011;57434;42.794;23.302;2022-11-21T05:06:18;1.83;;;0.35;;
70071;SDS011;57434;42.794;23.302;2022-11-21T05:08:45;2.97;;;0.90;;
70071;SDS011;57434;42.794;23.302;2022-11-21T05:11:18;2.50;;;0.50;;
70071;SDS011;57434;42.794;23.302;2022-11-21T05:13:45;2.80;;;0.50;;
70071;SDS011;57434;42.794;23.302;2022-11-21T05:16:12;2.67;;;0.50;;
70071;SDS011;57434;42.794;23.302;2022-11-21T05:18:39;2.33;;;0.60;;
70071;SDS011;57434;42.794;23.302;2022-11-21T05:21:06;1.60;;;0.20;;
70071;SDS011;57434;42.794;23.302;2022-11-21T05:23:33;6.78;;;2.63;;
70071;SDS011;57434;42.794;23.302;2022-11-21T05:26:00;3.30;;;0.88;;
70071;SDS011;57434;42.794;23.302;2022-11-21T05:28:27;1.58;;;0.40;;
70071;SDS011;57434;42.794;23.302;2022-11-21T05:30:54;2.05;;;0.40;;
70071;SDS011;57434;42.794;23.302;2022-11-21T05:33:21;1.33;;;0.30;;
70071;SDS011;57434;42.794;23.302;2022-11-21T05:35:48;2.13;;;0.55;;
70071;SDS011;57434;42.794;23.302;2022-11-21T05:38:15;2.97;;;0.60;;
70071;SDS011;57434;42.794;23.302;2022-11-21T05:40:42;2.38;;;0.57;;
70071;SDS011;57434;42.794;23.302;2022-11-21T05:43:10;2.22;;;0.28;;
70071;SDS011;57434;42.794;23.302;2022-11-21T05:45:37;2.23;;;0.70;;
70071;SDS011;57434;42.794;23.302;2022-11-21T05:48:04;1.02;;;0.32;;
70071;SDS011;57434;42.794;23.302;2022-11-21T05:50:31;2.42;;;0.60;;
70071;SDS011;57434;42.794;23.302;2022-11-21T05:53:08;2.53;;;0.43;;
70071;SDS011;57434;42.794;23.302;2022-11-21T05:55:35;2.72;;;0.50;;
70071;SDS011;57434;42.794;23.302;2022-11-21T05:58:02;1.30;;;0.37;;
70071;SDS011;57434;42.794;23.302;2022-11-21T06:00:29;1.83;;;0.60;;
70071;SDS011;57434;42.794;23.302;2022-11-21T06:02:56;1.88;;;0.60;;
70071;SDS011;57434;42.794;23.302;2022-11-21T06:05:23;0.77;;;0.20;;
70071;SDS011;57434;42.794;23.302;2022-11-21T06:07:50;1.33;;;0.38;;
70071;SDS011;57434;42.794;23.302;2022-11-21T06:10:30;1.33;;;0.40;;
70071;SDS011;57434;42.794;23.302;2022-11-21T06:13:00;1.80;;;0.22;;
70071;SDS011;57434;42.794;23.302;2022-11-21T06:15:28;1.23;;;0.28;;
70071;SDS011;57434;42.794;23.302;2022-11-21T06:17:55;2.15;;;0.60;;
70071;SDS011;57434;42.794;23.302;2022-11-21T06:20:25;6.10;;;0.55;;
70071;SDS011;57434;42.794;23.302;2022-11-21T06:22:52;1.53;;;0.37;;
70071;SDS011;57434;42.794;23.302;2022-11-21T06:25:19;3.45;;;0.60;;
70071;SDS011;57434;42.794;23.302;2022-11-21T06:27:46;1.02;;;0.30;;
70071;SDS011;57434;42.794;23.302;2022-11-21T06:30:14;1.13;;;0.40;;
70071;SDS011;57434;42.794;23.302;2022-11-21T06:32:47;1.40;;;0.40;;
70071;SDS011;57434;42.794;23.302;2022-11-21T06:35:14;1.07;;;0.50;;
70071;SDS011;57434;42.794;23.302;2022-11-21T06:37:42;2.13;;;0.30;;
70071;SDS011;57434;42.794;23.302;2022-11-21T06:40:09;1.02;;;0.30;;
70071;SDS011;57434;42.794;23.302;2022-11-21T06:42:37;1.73;;;0.40;;
70071;SDS011;57434;42.794;23.302;2022-11-21T06:45:04;1.05;;;0.30;;
70071;SDS011;57434;42.794;23.302;2022-11-21T06:47:34;0.87;;;0.20;;
70071;SDS011;57434;42.794;23.302;2022-11-21T06:50:01;0.82;;;0.20;;
70071;SDS011;57434;42.794;23.302;2022-11-21T06:52:31;2.67;;;0.30;;
70071;SDS011;57434;42.794;23.302;2022-11-21T06:55:01;0.95;;;0.20;;
70071;SDS011;57434;42.794;23.302;2022-11-21T06:57:28;8.00;;;1.17;;
70071;SDS011;57434;42.794;23.302;2022-11-21T06:59:56;5.23;;;1.43;;
70071;SDS011;57434;42.794;23.302;2022-11-21T07:02:23;2.20;;;0.60;;
70071;SDS011;57434;42.794;23.302;2022-11-21T07:04:50;4.38;;;0.63;;
70071;SDS011;57434;42.794;23.302;2022-11-21T07:07:17;6.70;;;0.60;;
70071;SDS011;57434;42.794;23.302;2022-11-21T07:09:44;0.57;;;0.20;;
70071;SDS011;57434;42.794;23.302;2022-11-21T07:12:11;3.13;;;0.40;;
70071;SDS011;57434;42.794;23.302;2022-11-21T07:14:39;1.35;;;0.30;;
70071;SDS011;57434;42.794;23.302;2022-11-21T07:17:11;0.80;;;0.30;;
70071;SDS011;57434;42.794;23.302;2022-11-21T07:19:46;1.58;;;0.40;;
70071;SDS011;57434;42.794;23.302;2022-11-21T07:22:13;4.13;;;0.90;;
70071;SDS011;57434;42.794;23.302;2022-11-21T07:24:41;1.43;;;0.40;;
70071;SDS011;57434;42.794;23.302;2022-11-21T07:27:08;1.83;;;0.38;;
70071;SDS011;57434;42.794;23.302;2022-11-21T07:29:36;4.10;;;1.23;;
70071;SDS011;57434;42.794;23.302;2022-11-21T07:32:03;1.83;;;0.40;;
70071;SDS011;57434;42.794;23.302;2022-11-21T07:34:31;1.88;;;0.50;;
70071;SDS011;57434;42.794;23.302;2022-11-21T07:36:58;4.70;;;0.77;;
70071;SDS011;57434;42.794;23.302;2022-11-21T07:39:28;5.20;;;0.63;;
70071;SDS011;57434;42.794;23.302;2022-11-21T07:41:56;2.03;;;0.60;;
70071;SDS011;57434;42.794;23.302;2022-11-21T07:44:29;2.83;;;0.70;;
70071;SDS011;57434;42.794;23.302;2022-11-21T07:47:00;2.65;;;0.80;;
70071;SDS011;57434;42.794;23.302;2022-11-21T07:49:27;2.30;;;0.70;;
70071;SDS011;57434;42.794;23.302;2022-11-21T07:51:54;2.90;;;0.50;;
70071;SDS011;57434;42.794;23.302;2022-11-21T07:54:25;2.78;;;0.80;;
70071;SDS011;57434;42.794;23.302;2022-11-21T07:56:52;2.95;;;0.98;;
70071;SDS011;57434;42.794;23.302;2022-11-21T07:59:19;3.13;;;1.10;;
70071;SDS011;57434;42.794;23.302;2022-11-21T08:01:46;3.47;;;0.97;;
70071;SDS011;57434;42.794;23.302;2022-11-21T08:04:13;1.95;;;0.60;;
70071;SDS011;57434;42.794;23.302;2022-11-21T08:06:41;3.88;;;0.82;;
70071;SDS011;57434;42.794;23.302;2022-11-21T08:09:08;2.63;;;0.80;;
70071;SDS011;57434;42.794;23.302;2022-11-21T08:11:35;2.78;;;1.05;;
70071;SDS011;57434;42.794;23.302;2022-11-21T08:14:03;4.10;;;0.80;;
70071;SDS011;57434;42.794;23.302;2022-11-21T08:16:30;6.40;;;2.83;;
70071;SDS011;57434;42.794;23.302;2022-11-21T08:18:58;6.35;;;2.85;;
70071;SDS011;57434;42.794;23.302;2022-11-21T08:21:25;1.77;;;0.60;;
70071;SDS011;57434;42.794;23.302;2022-11-21T08:23:53;2.75;;;0.70;;
70071;SDS011;57434;42.794;23.302;2022-11-21T08:26:20;2.93;;;0.83;;
70071;SDS011;57434;42.794;23.302;2022-11-21T08:28:47;2.47;;;0.80;;
70071;SDS011;57434;42.794;23.302;2022-11-21T08:31:15;1.88;;;0.50;;
70071;SDS011;57434;42.794;23.302;2022-11-21T08:33:41;2.13;;;0.57;;
70071;SDS011;57434;42.794;23.302;2022-11-21T08:36:09;1.60;;;0.65;;
70071;SDS011;57434;42.794;23.302;2022-11-21T08:38:36;1.07;;;0.20;;
70071;SDS011;57434;42.794;23.302;2022-11-21T08:41:03;0.60;;;0.20;;
70071;SDS011;57434;42.794;23.302;2022-11-21T08:43:30;2.17;;;0.30;;
70071;SDS011;57434;42.794;23.302;2022-11-21T08:45:57;0.60;;;0.10;;
70071;SDS011;57434;42.794;23.302;2022-11-21T08:48:23;2.00;;;0.30;;
70071;SDS011;57434;42.794;23.302;2022-11-21T08:50:51;4.00;;;0.80;;
70071;SDS011;57434;42.794;23.302;2022-11-21T08:53:17;2.63;;;0.80;;
70071;SDS011;57434;42.794;23.302;2022-11-21T08:55:44;0.68;;;0.25;;
70071;SDS011;57434;42.794;23.302;2022-11-21T08:58:11;2.08;;;0.65;;
70071;SDS011;57434;42.794;23.302;2022-11-21T09:00:39;1.20;;;0.40;;
70071;SDS011;57434;42.794;23.302;2022-11-21T09:03:07;0.97;;;0.27;;
70071;SDS011;57434;42.794;23.302;2022-11-21T09:05:34;1.33;;;0.40;;
70071;SDS011;57434;42.794;23.302;2022-11-21T09:08:01;0.93;;;0.30;;
70071;SDS011;57434;42.794;23.302;2022-11-21T09:10:28;1.75;;;0.30;;
70071;SDS011;57434;42.794;23.302;2022-11-21T09:12:58;0.68;;;0.17;;
70071;SDS011;57434;42.794;23.302;2022-11-21T09:15:25;1.50;;;0.40;;
70071;SDS011;57434;42.794;23.302;2022-11-21T09:17:52;1.88;;;0.50;;
70071;SDS011;57434;42.794;23.302;2022-11-21T09:20:19;2.15;;;0.50;;
70071;SDS011;57434;42.794;23.302;2022-11-21T09:22:46;0.77;;;0.20;;
70071;SDS011;57434;42.794;23.302;2022-11-21T09:25:13;1.77;;;0.50;;
70071;SDS011;57434;42.794;23.302;2022-11-21T09:27:40;1.10;;;0.33;;
70071;SDS011;57434;42.794;23.302;2022-11-21T09:30:07;0.70;;;0.25;;
70071;SDS011;57434;42.794;23.302;2022-11-21T09:32:35;1.60;;;0.43;;
70071;SDS011;57434;42.794;23.302;2022-11-21T09:35:03;1.88;;;0.32;;
70071;SDS011;57434;42.794;23.302;2022-11-21T09:37:34;1.40;;;0.32;;
70071;SDS011;57434;42.794;23.302;2022-11-21T09:40:02;1.53;;;0.30;;
70071;SDS011;57434;42.794;23.302;2022-11-21T09:45:25;0.90;;;0.20;;
70071;SDS011;57434;42.794;23.302;2022-11-21T09:48:01;2.13;;;0.40;;
70071;SDS011;57434;42.794;23.302;2022-11-21T09:50:35;9.13;;;3.38;;
70071;SDS011;57434;42.794;23.302;2022-11-21T09:55:51;2.47;;;0.73;;
70071;SDS011;57434;42.794;23.302;2022-11-21T09:58:40;1.38;;;0.40;;
70071;SDS011;57434;42.794;23.302;2022-11-21T10:01:11;2.17;;;0.50;;
70071;SDS011;57434;42.794;23.302;2022-11-21T10:03:41;2.20;;;0.65;;
70071;SDS011;57434;42.794;23.302;2022-11-21T10:08:52;1.92;;;0.40;;
70071;SDS011;57434;42.794;23.302;2022-11-21T10:14:44;10.00;;;2.60;;
70071;SDS011;57434;42.794;23.302;2022-11-21T10:28:50;3.35;;;0.90;;
70071;SDS011;57434;42.794;23.302;2022-11-21T10:31:27;8.10;;;1.88;;
70071;SDS011;57434;42.794;23.302;2022-11-21T10:34:01;5.00;;;0.87;;
70071;SDS011;57434;42.794;23.302;2022-11-21T10:36:36;2.40;;;0.60;;
70071;SDS011;57434;42.794;23.302;2022-11-21T10:39:20;3.20;;;0.80;;
70071;SDS011;57434;42.794;23.302;2022-11-21T10:42:03;3.28;;;0.35;;
70071;SDS011;57434;42.794;23.302;2022-11-21T10:44:38;4.70;;;0.47;;
70071;SDS011;57434;42.794;23.302;2022-11-21T10:47:11;5.20;;;1.70;;
70071;SDS011;57434;42.794;23.302;2022-11-21T10:49:46;2.20;;;0.70;;
70071;SDS011;57434;42.794;23.302;2022-11-21T10:52:15;1.98;;;0.60;;
70071;SDS011;57434;42.794;23.302;2022-11-21T10:57:30;2.15;;;0.75;;
70071;SDS011;57434;42.794;23.302;2022-11-21T11:02:39;1.33;;;0.50;;
70071;SDS011;57434;42.794;23.302;2022-11-21T11:10:28;2.30;;;0.77;;
70071;SDS011;57434;42.794;23.302;2022-11-21T11:12:56;6.00;;;2.00;;
70071;SDS011;57434;42.794;23.302;2022-11-21T11:15:27;2.90;;;0.98;;
70071;SDS011;57434;42.794;23.302;2022-11-21T11:17:56;5.25;;;1.55;;
70071;SDS011;57434;42.794;23.302;2022-11-21T11:20:41;3.75;;;1.10;;
70071;SDS011;57434;42.794;23.302;2022-11-21T11:23:22;3.85;;;1.17;;
70071;SDS011;57434;42.794;23.302;2022-11-21T11:28:25;11.82;;;4.57;;
70071;SDS011;57434;42.794;23.302;2022-11-21T11:30:59;2.08;;;0.77;;
70071;SDS011;57434;42.794;23.302;2022-11-21T11:33:31;2.28;;;0.60;;
70071;SDS011;57434;42.794;23.302;2022-11-21T11:38:37;3.07;;;1.17;;
70071;SDS011;57434;42.794;23.302;2022-11-21T11:41:11;1.90;;;0.63;;
70071;SDS011;57434;42.794;23.302;2022-11-21T11:49:35;2.35;;;0.63;;
70071;SDS011;57434;42.794;23.302;2022-11-21T11:52:08;3.43;;;0.93;;
70071;SDS011;57434;42.794;23.302;2022-11-21T11:54:45;2.90;;;0.80;;
70071;SDS011;57434;42.794;23.302;2022-11-21T11:57:15;3.03;;;0.95;;
70071;SDS011;57434;42.794;23.302;2022-11-21T11:59:45;3.53;;;1.02;;
70071;SDS011;57434;42.794;23.302;2022-11-21T12:02:24;3.00;;;1.00;;
70071;SDS011;57434;42.794;23.302;2022-11-21T12:05:03;3.30;;;1.23;;
70071;SDS011;57434;42.794;23.302;2022-11-21T12:07:43;2.60;;;0.75;;
70071;SDS011;57434;42.794;23.302;2022-11-21T12:13:13;1.92;;;0.43;;
70071;SDS011;57434;42.794;23.302;2022-11-21T12:15:48;1.35;;;0.40;;
70071;SDS011;57434;42.794;23.302;2022-11-21T12:18:47;2.40;;;0.77;;
70071;SDS011;57434;42.794;23.302;2022-11-21T12:21:21;2.40;;;0.80;;
70071;SDS011;57434;42.794;23.302;2022-11-21T12:23:52;2.30;;;0.85;;
70071;SDS011;57434;42.794;23.302;2022-11-21T12:32:03;2.07;;;0.70;;
70071;SDS011;57434;42.794;23.302;2022-11-21T12:35:15;1.90;;;0.47;;
70071;SDS011;57434;42.794;23.302;2022-11-21T12:43:28;3.28;;;0.98;;
70071;SDS011;57434;42.794;23.302;2022-11-21T12:48:47;3.45;;;1.05;;
70071;SDS011;57434;42.794;23.302;2022-11-21T12:57:34;2.25;;;0.68;;
70071;SDS011;57434;42.794;23.302;2022-11-21T13:00:14;3.60;;;1.03;;
70071;SDS011;57434;42.794;23.302;2022-11-21T13:06:11;3.55;;;1.17;;
70071;SDS011;57434;42.794;23.302;2022-11-21T13:08:46;5.55;;;1.15;;
70071;SDS011;57434;42.794;23.302;2022-11-21T13:11:18;4.78;;;1.60;;
70071;SDS011;57434;42.794;23.302;2022-11-21T13:13:49;6.00;;;2.63;;
70071;SDS011;57434;42.794;23.302;2022-11-21T13:16:28;5.50;;;2.05;;
70071;SDS011;57434;42.794;23.302;2022-11-21T13:18:58;3.97;;;1.15;;
70071;SDS011;57434;42.794;23.302;2022-11-21T13:21:43;3.20;;;1.05;;
70071;SDS011;57434;42.794;23.302;2022-11-21T13:24:13;3.15;;;1.10;;
70071;SDS011;57434;42.794;23.302;2022-11-21T13:27:23;8.30;;;2.37;;
70071;SDS011;57434;42.794;23.302;2022-11-21T13:32:35;4.07;;;1.35;;
70071;SDS011;57434;42.794;23.302;2022-11-21T13:45:52;3.90;;;1.20;;
70071;SDS011;57434;42.794;23.302;2022-11-21T13:51:18;4.22;;;1.50;;
70071;SDS011;57434;42.794;23.302;2022-11-21T14:07:48;3.70;;;1.37;;
70071;SDS011;57434;42.794;23.302;2022-11-21T14:10:17;3.97;;;1.58;;
70071;SDS011;57434;42.794;23.302;2022-11-21T14:12:48;4.00;;;1.42;;
70071;SDS011;57434;42.794;23.302;2022-11-21T14:18:18;13.82;;;4.57;;
70071;SDS011;57434;42.794;23.302;2022-11-21T14:23:20;7.30;;;2.50;;
70071;SDS011;57434;42.794;23.302;2022-11-21T14:25:58;5.47;;;2.17;;
70071;SDS011;57434;42.794;23.302;2022-11-21T14:28:28;4.55;;;1.73;;
70071;SDS011;57434;42.794;23.302;2022-11-21T14:30:58;4.68;;;1.90;;
70071;SDS011;57434;42.794;23.302;2022-11-21T14:35:59;8.98;;;4.13;;
70071;SDS011;57434;42.794;23.302;2022-11-21T14:38:44;4.13;;;1.70;;
70071;SDS011;57434;42.794;23.302;2022-11-21T14:41:36;4.80;;;1.80;;
70071;SDS011;57434;42.794;23.302;2022-11-21T14:44:11;5.30;;;1.67;;
70071;SDS011;57434;42.794;23.302;2022-11-21T14:46:41;8.80;;;3.73;;
70071;SDS011;57434;42.794;23.302;2022-11-21T14:51:49;15.77;;;7.75;;
70071;SDS011;57434;42.794;23.302;2022-11-21T14:54:25;7.78;;;3.92;;
70071;SDS011;57434;42.794;23.302;2022-11-21T14:56:59;10.25;;;5.47;;
70071;SDS011;57434;42.794;23.302;2022-11-21T14:59:29;10.13;;;5.53;;
70071;SDS011;57434;42.794;23.302;2022-11-21T15:02:02;7.13;;;3.22;;
70071;SDS011;57434;42.794;23.302;2022-11-21T15:04:37;7.43;;;2.40;;
70071;SDS011;57434;42.794;23.302;2022-11-21T15:07:14;7.43;;;2.90;;
70071;SDS011;57434;42.794;23.302;2022-11-21T15:09:44;5.82;;;2.00;;
70071;SDS011;57434;42.794;23.302;2022-11-21T15:15:02;6.35;;;3.03;;
70071;SDS011;57434;42.794;23.302;2022-11-21T15:17:30;7.95;;;3.30;;
70071;SDS011;57434;42.794;23.302;2022-11-21T15:20:14;8.93;;;3.85;;
70071;SDS011;57434;42.794;23.302;2022-11-21T15:22:45;8.55;;;3.90;;
70071;SDS011;57434;42.794;23.302;2022-11-21T15:27:43;7.95;;;3.50;;
70071;SDS011;57434;42.794;23.302;2022-11-21T15:41:03;5.75;;;3.05;;
70071;SDS011;57434;42.794;23.302;2022-11-21T15:43:36;7.63;;;3.22;;
70071;SDS011;57434;42.794;23.302;2022-11-21T15:46:10;8.60;;;4.10;;
70071;SDS011;57434;42.794;23.302;2022-11-21T15:48:46;12.38;;;6.05;;
70071;SDS011;57434;42.794;23.302;2022-11-21T15:51:21;39.63;;;17.30;;
70071;SDS011;57434;42.794;23.302;2022-11-21T15:54:14;33.03;;;16.90;;
70071;SDS011;57434;42.794;23.302;2022-11-21T15:56:42;15.10;;;8.93;;
70071;SDS011;57434;42.794;23.302;2022-11-21T15:59:09;19.88;;;6.97;;
70071;SDS011;57434;42.794;23.302;2022-11-21T16:01:36;21.95;;;8.70;;
70071;SDS011;57434;42.794;23.302;2022-11-21T16:04:05;17.43;;;7.40;;
70071;SDS011;57434;42.794;23.302;2022-11-21T16:06:33;23.40;;;7.45;;
70071;SDS011;57434;42.794;23.302;2022-11-21T16:09:01;12.30;;;6.22;;
70071;SDS011;57434;42.794;23.302;2022-11-21T16:11:29;22.70;;;5.55;;
70071;SDS011;57434;42.794;23.302;2022-11-21T16:14:01;12.90;;;6.38;;
70071;SDS011;57434;42.794;23.302;2022-11-21T16:16:31;10.73;;;5.57;;
70071;SDS011;57434;42.794;23.302;2022-11-21T16:19:06;10.23;;;5.28;;
70071;SDS011;57434;42.794;23.302;2022-11-21T16:21:35;9.73;;;5.40;;
70071;SDS011;57434;42.794;23.302;2022-11-21T16:24:03;16.63;;;6.90;;
70071;SDS011;57434;42.794;23.302;2022-11-21T16:26:30;11.25;;;5.32;;
70071;SDS011;57434;42.794;23.302;2022-11-21T16:28:57;13.50;;;5.97;;
70071;SDS011;57434;42.794;23.302;2022-11-21T16:31:26;11.82;;;5.25;;
70071;SDS011;57434;42.794;23.302;2022-11-21T16:33:55;14.77;;;7.93;;
70071;SDS011;57434;42.794;23.302;2022-11-21T16:36:26;19.30;;;5.80;;
70071;SDS011;57434;42.794;23.302;2022-11-21T16:38:55;22.30;;;7.93;;
70071;SDS011;57434;42.794;23.302;2022-11-21T16:41:25;41.03;;;18.17;;
70071;SDS011;57434;42.794;23.302;2022-11-21T16:43:53;21.25;;;11.88;;
70071;SDS011;57434;42.794;23.302;2022-11-21T16:46:22;25.73;;;10.88;;
70071;SDS011;57434;42.794;23.302;2022-11-21T16:49:00;27.77;;;7.85;;
70071;SDS011;57434;42.794;23.302;2022-11-21T16:51:28;11.80;;;4.43;;
70071;SDS011;57434;42.794;23.302;2022-11-21T16:53:56;19.80;;;4.27;;
70071;SDS011;57434;42.794;23.302;2022-11-21T17:30:32;10.30;;;3.60;;
70071;SDS011;57434;42.794;23.302;2022-11-21T17:33:05;8.43;;;2.97;;
70071;SDS011;57434;42.794;23.302;2022-11-21T17:35:42;18.20;;;6.80;;
70071;SDS011;57434;42.794;23.302;2022-11-21T17:38:41;13.88;;;6.15;;